createdAt,value
2022-12-03T00:01:37.389Z,98719.50
2022-12-03T00:04:05.944Z,98748.03
2022-12-03T00:06:34.799Z,98748.78
2022-12-03T00:09:03.114Z,98744.75
2022-12-03T00:11:31.132Z,98738.78
2022-12-03T00:13:59.213Z,98732.22
2022-12-03T00:16:28.731Z,98742.75
2022-12-03T00:18:56.790Z,98731.13
2022-12-03T00:21:25.056Z,98736.22
2022-12-03T00:23:53.234Z,98744.53
2022-12-03T00:26:21.408Z,98708.56
2022-12-03T00:28:49.494Z,98738.56
2022-12-03T00:31:17.770Z,98734.59
2022-12-03T00:33:47.337Z,98736.38
2022-12-03T00:36:15.359Z,98727.66
2022-12-03T00:38:43.427Z,98716.88
2022-12-03T00:41:12.042Z,98731.72
2022-12-03T00:43:40.223Z,98736.75
2022-12-03T00:46:08.346Z,98740.63
2022-12-03T00:48:36.400Z,98659.63
2022-12-03T00:51:06.103Z,98702.00
2022-12-03T00:53:34.133Z,98741.50
2022-12-03T00:56:02.422Z,98751.31
2022-12-03T00:58:30.466Z,98744.41
2022-12-03T01:00:58.501Z,98716.81
2022-12-03T01:03:26.554Z,98662.63
2022-12-03T01:05:54.528Z,98733.25
2022-12-03T01:08:24.294Z,98739.16
2022-12-03T01:10:52.288Z,98735.59
2022-12-03T01:13:20.350Z,98736.81
2022-12-03T01:15:48.422Z,98735.59
2022-12-03T01:18:16.466Z,98742.63
2022-12-03T01:20:44.689Z,98748.25
2022-12-03T01:23:12.839Z,98738.94
2022-12-03T01:25:42.283Z,98702.38
2022-12-03T01:28:10.414Z,98749.53
2022-12-03T01:30:59.263Z,98742.00
2022-12-03T01:33:26.680Z,98736.81
2022-12-03T01:35:54.702Z,98691.66
2022-12-03T01:38:22.747Z,98740.81
2022-12-03T01:40:54.840Z,98733.06
2022-12-03T01:43:22.897Z,98715.31
2022-12-03T01:45:50.910Z,98736.97
2022-12-03T01:48:19.136Z,98736.03
2022-12-03T01:50:47.417Z,98730.44
2022-12-03T01:53:18.409Z,98712.03
2022-12-03T01:55:48.947Z,98753.28
2022-12-03T01:58:23.382Z,98747.97
2022-12-03T02:00:51.415Z,98740.59
2022-12-03T02:03:22.391Z,98746.56
2022-12-03T02:05:50.441Z,98731.38
2022-12-03T02:08:32.774Z,98750.75
2022-12-03T02:11:04.884Z,98752.75
2022-12-03T02:13:34.880Z,98747.66
2022-12-03T02:16:03.186Z,98751.19
2022-12-03T02:18:31.306Z,98723.69
2022-12-03T02:21:07.633Z,98746.94
2022-12-03T02:23:41.788Z,98751.19
2022-12-03T02:26:11.778Z,98760.69
2022-12-03T02:28:40.221Z,98751.06
2022-12-03T02:31:08.866Z,98756.78
2022-12-03T02:33:37.345Z,98745.50
2022-12-03T02:36:06.288Z,98748.63
2022-12-03T02:38:35.873Z,98753.22
2022-12-03T02:41:06.899Z,98730.47
2022-12-03T02:43:35.513Z,98753.59
2022-12-03T02:46:04.962Z,98726.44
2022-12-03T02:48:36.792Z,98727.66
2022-12-03T02:51:09.074Z,98751.75
2022-12-03T02:53:42.393Z,98751.91
2022-12-03T02:56:13.016Z,98736.59
2022-12-03T02:58:44.918Z,98760.19
2022-12-03T03:01:13.283Z,98756.06
2022-12-03T03:03:41.735Z,98763.50
2022-12-03T03:06:10.680Z,98755.94
2022-12-03T03:08:40.268Z,98757.22
2022-12-03T03:11:08.344Z,98738.28
2022-12-03T03:13:37.756Z,98736.16
2022-12-03T03:16:09.030Z,98739.25
2022-12-03T03:18:38.186Z,98737.56
2022-12-03T03:21:06.759Z,98696.94
2022-12-03T03:23:35.045Z,98736.84
2022-12-03T03:26:06.235Z,98736.53
2022-12-03T03:28:37.117Z,98735.06
2022-12-03T03:31:09.310Z,98722.09
2022-12-03T03:33:39.077Z,98732.66
2022-12-03T03:36:08.077Z,98722.78
2022-12-03T03:38:37.668Z,98705.53
2022-12-03T03:41:07.188Z,98723.94
2022-12-03T03:43:36.918Z,98721.13
2022-12-03T03:46:08.508Z,98719.06
2022-12-03T03:48:36.905Z,98713.81
2022-12-03T03:51:09.463Z,98713.31
2022-12-03T03:53:39.799Z,98716.66
2022-12-03T03:56:09.670Z,98714.22
2022-12-03T03:58:38.390Z,98712.31
2022-12-03T04:01:08.395Z,98706.16
2022-12-03T04:03:36.782Z,98687.59
2022-12-03T04:06:05.530Z,98706.63
2022-12-03T04:08:33.545Z,98691.91
2022-12-03T04:11:18.830Z,98702.38
2022-12-03T04:13:46.879Z,98695.56
2022-12-03T04:16:16.375Z,98711.03
2022-12-03T04:18:44.485Z,98708.41
2022-12-03T04:21:31.256Z,98684.84
2022-12-03T04:23:59.306Z,98717.97
2022-12-03T04:26:44.889Z,98703.38
2022-12-03T04:29:13.444Z,98674.16
2022-12-03T04:32:00.461Z,98694.69
2022-12-03T04:34:46.153Z,98721.97
2022-12-03T04:37:14.325Z,98706.63
2022-12-03T04:39:42.909Z,98720.09
2022-12-03T04:42:10.964Z,98660.09
2022-12-03T04:44:39.251Z,98722.09
2022-12-03T04:47:11.584Z,98725.94
2022-12-03T04:49:41.461Z,98717.56
2022-12-03T04:52:10.612Z,98713.03
2022-12-03T04:54:39.056Z,98725.63
2022-12-03T04:57:07.692Z,98731.25
2022-12-03T04:59:36.467Z,98710.66
2022-12-03T05:02:05.395Z,98715.91
2022-12-03T05:04:35.225Z,98723.16
2022-12-03T05:07:03.239Z,98720.16
2022-12-03T05:09:31.362Z,98741.03
2022-12-03T05:11:59.382Z,98714.00
2022-12-03T05:14:27.535Z,98720.16
2022-12-03T05:16:55.580Z,98734.94
2022-12-03T05:19:44.564Z,98737.22
2022-12-03T05:22:12.896Z,98738.03
2022-12-03T05:24:40.988Z,98734.66
2022-12-03T05:27:09.019Z,98698.56
2022-12-03T05:29:37.020Z,98670.41
2022-12-03T05:32:05.147Z,98718.09
2022-12-03T05:34:33.197Z,98740.00
2022-12-03T05:37:01.226Z,98730.19
2022-12-03T05:39:30.707Z,98754.47
2022-12-03T05:42:15.763Z,98749.41
2022-12-03T05:44:43.807Z,98749.16
2022-12-03T05:47:11.822Z,98718.56
2022-12-03T05:49:39.818Z,98730.63
2022-12-03T05:52:08.011Z,98732.59
2022-12-03T05:54:37.434Z,98738.03
2022-12-03T05:57:05.693Z,98730.34
2022-12-03T05:59:33.742Z,98736.69
2022-12-03T06:02:01.840Z,98757.19
2022-12-03T06:04:29.881Z,98730.03
2022-12-03T06:06:57.904Z,98722.91
2022-12-03T06:09:25.941Z,98748.72
2022-12-03T06:11:55.391Z,98732.59
2022-12-03T06:14:23.479Z,98757.63
2022-12-03T06:16:51.897Z,98763.22
2022-12-03T06:19:19.922Z,98765.34
2022-12-03T06:21:47.914Z,98774.94
2022-12-03T06:24:16.015Z,98765.44
2022-12-03T06:26:44.069Z,98770.78
2022-12-03T06:29:13.448Z,98774.25
2022-12-03T06:31:41.508Z,98767.19
2022-12-03T06:34:09.576Z,98755.06
2022-12-03T06:36:37.540Z,98752.38
2022-12-03T06:39:05.884Z,98747.84
2022-12-03T06:41:33.925Z,98747.00
2022-12-03T06:44:01.933Z,98743.53
2022-12-03T06:46:31.524Z,98740.91
2022-12-03T06:48:59.625Z,98740.34
2022-12-03T06:51:27.676Z,98729.47
2022-12-03T06:53:55.775Z,98710.41
2022-12-03T06:56:23.829Z,98732.97
2022-12-03T06:58:51.922Z,98725.03
2022-12-03T07:01:20.359Z,98740.72
2022-12-03T07:03:49.900Z,98732.41
2022-12-03T07:06:17.933Z,98739.72
2022-12-03T07:08:45.970Z,98735.41
2022-12-03T07:11:27.829Z,98735.63
2022-12-03T07:14:00.097Z,98702.78
2022-12-03T07:16:31.191Z,98735.34
2022-12-03T07:19:00.647Z,98717.47
2022-12-03T07:21:28.676Z,98723.34
2022-12-03T07:23:56.740Z,98726.22
2022-12-03T07:26:24.769Z,98725.44
2022-12-03T07:28:52.830Z,98731.56
2022-12-03T07:31:20.853Z,98726.97
2022-12-03T07:33:48.969Z,98739.63
2022-12-03T07:36:18.511Z,98747.19
2022-12-03T07:38:46.539Z,98740.31
2022-12-03T07:41:14.521Z,98741.16
2022-12-03T07:43:42.595Z,98736.91
2022-12-03T07:46:10.618Z,98725.78
2022-12-03T07:48:38.640Z,98728.34
2022-12-03T07:51:06.803Z,98727.88
2022-12-03T07:53:36.664Z,98729.88
2022-12-03T07:56:05.496Z,98733.63
2022-12-03T07:58:33.533Z,98727.56
2022-12-03T08:01:01.601Z,98727.16
2022-12-03T08:03:29.678Z,98728.72
2022-12-03T08:05:57.640Z,98738.75
2022-12-03T08:08:25.737Z,98732.47
2022-12-03T08:10:55.219Z,98730.81
2022-12-03T08:13:23.206Z,98731.56
2022-12-03T08:15:51.233Z,98730.56
2022-12-03T08:18:21.601Z,98726.22
2022-12-03T08:20:50.807Z,98711.63
2022-12-03T08:23:20.329Z,98704.41
2022-12-03T08:25:49.281Z,98718.78
2022-12-03T08:28:21.133Z,98719.53
2022-12-03T08:31:00.228Z,98711.00
2022-12-03T08:33:33.714Z,98713.81
2022-12-03T08:36:07.261Z,98704.59
2022-12-03T08:38:35.349Z,98704.81
2022-12-03T08:41:03.329Z,98712.91
2022-12-03T08:43:42.030Z,98675.03
2022-12-03T08:46:14.641Z,98708.06
2022-12-03T08:48:47.024Z,98709.09
2022-12-03T08:51:21.919Z,98695.13
2022-12-03T08:53:55.343Z,98717.53
2022-12-03T08:56:28.326Z,98720.94
2022-12-03T08:59:00.110Z,98714.06
2022-12-03T09:01:39.251Z,98726.31
2022-12-03T09:04:22.699Z,98706.88
2022-12-03T09:06:51.657Z,98735.91
2022-12-03T09:09:20.339Z,98719.88
2022-12-03T09:11:48.482Z,98717.84
2022-12-03T09:14:21.516Z,98709.72
2022-12-03T09:16:50.582Z,98729.44
2022-12-03T09:19:19.085Z,98732.81
2022-12-03T09:21:47.080Z,98700.00
2022-12-03T09:24:15.103Z,98709.69
2022-12-03T09:26:43.194Z,98708.78
2022-12-03T09:29:12.627Z,98716.28
2022-12-03T09:31:42.654Z,98723.56
2022-12-03T09:34:11.318Z,98729.44
2022-12-03T09:36:39.401Z,98722.78
2022-12-03T09:39:08.054Z,98726.16
2022-12-03T09:41:36.273Z,98726.16
2022-12-03T09:44:05.432Z,98634.66
2022-12-03T09:46:35.968Z,98691.31
2022-12-03T09:49:13.919Z,98702.38
2022-12-03T09:51:44.161Z,98701.19
2022-12-03T09:54:21.765Z,98653.81
2022-12-03T09:56:49.771Z,98702.53
2022-12-03T09:59:18.188Z,98692.03
2022-12-03T10:01:46.258Z,98665.19
2022-12-03T10:04:16.129Z,98683.81
2022-12-03T10:06:46.077Z,98682.81
2022-12-03T10:09:18.024Z,98665.59
2022-12-03T10:11:46.155Z,98684.38
2022-12-03T10:14:15.773Z,98682.19
2022-12-03T10:16:44.054Z,98666.31
2022-12-03T10:19:21.802Z,98662.00
2022-12-03T10:21:49.897Z,98671.22
2022-12-03T10:24:27.017Z,98677.31
2022-12-03T10:26:57.049Z,98676.09
2022-12-03T10:29:33.558Z,98672.53
2022-12-03T10:32:03.861Z,98662.56
2022-12-03T10:34:36.063Z,98655.13
2022-12-03T10:37:12.473Z,98668.28
2022-12-03T10:39:58.224Z,98661.63
2022-12-03T10:42:27.908Z,98652.97
2022-12-03T10:45:19.739Z,98656.47
2022-12-03T10:48:06.512Z,98655.31
2022-12-03T10:50:36.566Z,98647.50
2022-12-03T10:53:05.791Z,98651.69
2022-12-03T10:55:39.013Z,98643.00
2022-12-03T10:58:07.093Z,98641.16
2022-12-03T11:00:35.245Z,98636.03
2022-12-03T11:03:03.366Z,98631.66
2022-12-03T11:05:31.515Z,98629.03
2022-12-03T11:08:01.034Z,98624.13
2022-12-03T11:10:29.187Z,98618.00
2022-12-03T11:13:29.729Z,98628.97
2022-12-03T11:15:58.147Z,98627.53
2022-12-03T11:19:07.766Z,98627.41
2022-12-03T11:21:35.773Z,98615.78
2022-12-03T11:24:17.538Z,98628.38
2022-12-03T11:27:26.765Z,98622.59
2022-12-03T11:29:59.849Z,98618.97
2022-12-03T11:33:09.814Z,98623.78
2022-12-03T11:36:36.498Z,98615.47
2022-12-03T11:39:09.964Z,98614.19
2022-12-03T11:41:38.032Z,98614.41
2022-12-03T11:44:32.198Z,98607.97
2022-12-03T11:47:09.697Z,98609.16
2022-12-03T11:49:47.468Z,98578.34
2022-12-03T11:52:25.128Z,98604.97
2022-12-03T11:54:58.974Z,98597.13
2022-12-03T11:57:31.649Z,98600.28
2022-12-03T12:00:24.194Z,98600.41
2022-12-03T12:02:53.958Z,98590.19
2022-12-03T12:05:26.517Z,98578.88
2022-12-03T12:07:55.225Z,98579.91
2022-12-03T12:10:45.690Z,98584.28
2022-12-03T12:13:54.627Z,98578.41
2022-12-03T12:16:43.865Z,98578.75
2022-12-03T12:19:33.481Z,98557.31
2022-12-03T12:22:16.608Z,98574.56
2022-12-03T12:24:51.723Z,98558.38
2022-12-03T12:27:23.371Z,98568.53
2022-12-03T12:29:57.005Z,98560.72
2022-12-03T12:32:26.470Z,98555.25
2022-12-03T12:34:58.247Z,98556.38
2022-12-03T12:37:33.713Z,98556.44
2022-12-03T12:40:07.001Z,98550.72
2022-12-03T12:42:38.168Z,98545.72
2022-12-03T12:45:17.856Z,98548.72
2022-12-03T12:47:51.048Z,98539.63
2022-12-03T12:50:20.578Z,98533.81
2022-12-03T12:52:54.590Z,98527.28
2022-12-03T12:55:24.274Z,98520.19
2022-12-03T12:57:53.851Z,98526.28
2022-12-03T13:00:24.552Z,98526.59
2022-12-03T13:02:55.929Z,98528.59
2022-12-03T13:05:27.750Z,98525.19
2022-12-03T13:07:56.181Z,98509.22
2022-12-03T13:10:34.367Z,98542.72
2022-12-03T13:13:16.148Z,98540.72
2022-12-03T13:15:50.599Z,98535.69
2022-12-03T13:18:26.691Z,98528.53
2022-12-03T13:20:55.613Z,98528.91
2022-12-03T13:23:33.005Z,98509.66
2022-12-03T13:26:21.411Z,98525.66
2022-12-03T13:28:56.937Z,98526.16
2022-12-03T13:31:27.961Z,98529.59
2022-12-03T13:33:57.275Z,98523.81
2022-12-03T13:36:42.520Z,98524.72
2022-12-03T13:39:16.629Z,98512.22
2022-12-03T13:42:02.432Z,98513.94
2022-12-03T13:44:33.706Z,98520.66
2022-12-03T13:47:03.252Z,98515.09
2022-12-03T13:49:31.443Z,98500.44
2022-12-03T13:51:59.538Z,98515.09
2022-12-03T13:54:32.390Z,98518.00
2022-12-03T13:57:02.693Z,98514.38
2022-12-03T13:59:32.104Z,98517.94
2022-12-03T14:02:00.204Z,98510.97
2022-12-03T14:04:28.275Z,98512.38
2022-12-03T14:06:56.242Z,98504.50
2022-12-03T14:09:24.349Z,98499.69
2022-12-03T14:12:09.624Z,98508.28
2022-12-03T14:14:39.037Z,98510.22
2022-12-03T14:17:07.653Z,98515.63
2022-12-03T14:19:35.695Z,98511.38
2022-12-03T14:22:03.781Z,98506.06
2022-12-03T14:24:31.788Z,98497.31
2022-12-03T14:26:59.814Z,98508.59
2022-12-03T14:29:28.002Z,98506.06
2022-12-03T14:31:57.466Z,98509.53
2022-12-03T14:34:25.563Z,98513.47
2022-12-03T14:36:53.542Z,98511.63
2022-12-03T14:39:22.011Z,98510.13
2022-12-03T14:42:07.389Z,98516.78
2022-12-03T14:44:35.432Z,98502.09
2022-12-03T14:47:05.070Z,98513.22
2022-12-03T14:49:33.138Z,98489.84
2022-12-03T14:52:01.386Z,98514.47
2022-12-03T14:54:29.422Z,98519.63
2022-12-03T14:56:57.389Z,98519.78
2022-12-03T14:59:27.925Z,98499.19
2022-12-03T15:01:56.466Z,98497.25
2022-12-03T15:04:26.027Z,98511.44
2022-12-03T15:06:53.991Z,98516.78
2022-12-03T15:09:22.114Z,98491.56
2022-12-03T15:11:50.089Z,98512.47
2022-12-03T15:14:18.131Z,98484.59
2022-12-03T15:16:46.206Z,98506.44
2022-12-03T15:19:14.465Z,98508.13
2022-12-03T15:21:43.883Z,98515.75
2022-12-03T15:24:11.914Z,98503.97
2022-12-03T15:26:39.870Z,98504.88
2022-12-03T15:29:07.893Z,98494.25
2022-12-03T15:31:36.016Z,98515.84
2022-12-03T15:34:04.096Z,98508.66
2022-12-03T15:36:32.184Z,98507.03
2022-12-03T15:39:01.580Z,98517.53
2022-12-03T15:41:30.240Z,98499.47
2022-12-03T15:44:00.041Z,98507.97
2022-12-03T15:46:28.581Z,98506.03
2022-12-03T15:48:56.946Z,98502.72
2022-12-03T15:51:25.650Z,98479.09
2022-12-03T15:53:53.678Z,98496.47
2022-12-03T15:56:23.084Z,98497.84
2022-12-03T15:58:51.117Z,98489.53
2022-12-03T16:01:19.111Z,98489.84
2022-12-03T16:03:47.163Z,98489.53
2022-12-03T16:06:15.753Z,98495.22
2022-12-03T16:08:43.766Z,98485.44
2022-12-03T16:11:11.744Z,98479.09
2022-12-03T16:13:41.122Z,98485.75
2022-12-03T16:16:09.396Z,98484.97
2022-12-03T16:18:37.448Z,98478.31
2022-12-03T16:21:05.665Z,98476.94
2022-12-03T16:23:33.726Z,98474.00
2022-12-03T16:26:01.696Z,98446.41
2022-12-03T16:28:29.909Z,98468.94
2022-12-03T16:30:59.403Z,98479.34
2022-12-03T16:33:28.118Z,98493.41
2022-12-03T16:35:56.376Z,98467.31
2022-12-03T16:38:24.595Z,98467.84
2022-12-03T16:40:52.602Z,98477.66
2022-12-03T16:43:20.681Z,98444.94
2022-12-03T16:46:20.609Z,98472.25
2022-12-03T16:48:50.432Z,98483.97
2022-12-03T16:51:19.409Z,98445.09
2022-12-03T16:53:47.640Z,98443.47
2022-12-03T16:56:16.438Z,98474.94
2022-12-03T16:58:45.175Z,98479.75
2022-12-03T17:01:13.891Z,98471.66
2022-12-03T17:03:42.374Z,98467.41
2022-12-03T17:06:11.737Z,98466.47
2022-12-03T17:08:44.393Z,98462.06
2022-12-03T17:11:15.538Z,98451.09
2022-12-03T17:13:43.527Z,98452.66
2022-12-03T17:16:11.627Z,98451.28
2022-12-03T17:18:39.667Z,98449.03
2022-12-03T17:21:07.795Z,98448.31
2022-12-03T17:23:37.190Z,98444.78
2022-12-03T17:26:05.330Z,98446.22
2022-12-03T17:28:33.362Z,98443.47
2022-12-03T17:31:01.464Z,98437.09
2022-12-03T17:33:29.546Z,98441.56
2022-12-03T17:35:57.570Z,98441.38
2022-12-03T17:38:25.643Z,98452.56
2022-12-03T17:40:55.103Z,98458.41
2022-12-03T17:43:23.145Z,98458.66
2022-12-03T17:45:51.250Z,98453.75
2022-12-03T17:48:19.296Z,98446.88
2022-12-03T17:50:48.592Z,98439.00
2022-12-03T17:53:16.548Z,98451.47
2022-12-03T17:55:45.266Z,98455.66
2022-12-03T17:58:14.933Z,98447.84
2022-12-03T18:00:43.335Z,98452.56
2022-12-03T18:03:11.371Z,98434.97
2022-12-03T18:05:39.367Z,98447.41
2022-12-03T18:08:07.896Z,98446.78
2022-12-03T18:10:36.281Z,98440.44
2022-12-03T18:13:04.294Z,98432.56
2022-12-03T18:15:33.948Z,98444.00
2022-12-03T18:18:01.949Z,98445.69
2022-12-03T18:20:30.205Z,98443.78
2022-12-03T18:22:59.793Z,98441.94
2022-12-03T18:25:28.516Z,98417.78
2022-12-03T18:27:56.500Z,98434.22
2022-12-03T18:30:24.751Z,98433.97
2022-12-03T18:32:54.261Z,98424.34
2022-12-03T18:35:22.344Z,98428.88
2022-12-03T18:37:51.368Z,98429.94
2022-12-03T18:40:22.626Z,98376.56
2022-12-03T18:42:50.656Z,98429.28
2022-12-03T18:45:18.923Z,98425.78
2022-12-03T18:47:47.032Z,98438.19
2022-12-03T18:50:16.515Z,98428.81
2022-12-03T18:52:44.508Z,98407.41
2022-12-03T18:55:18.952Z,98427.59
2022-12-03T18:57:47.363Z,98434.78
2022-12-03T19:00:16.637Z,98429.00
2022-12-03T19:05:35.456Z,98435.81
2022-12-03T19:08:04.025Z,98443.69
2022-12-03T19:10:32.153Z,98443.13
2022-12-03T19:13:00.195Z,98448.63
2022-12-03T19:15:28.267Z,98423.03
2022-12-03T19:17:56.249Z,98440.91
2022-12-03T19:20:24.350Z,98447.53
2022-12-03T19:22:53.781Z,98412.84
2022-12-03T19:25:21.808Z,98430.91
2022-12-03T19:27:50.891Z,98434.13
2022-12-03T19:30:19.276Z,98433.06
2022-12-03T19:32:51.617Z,98400.41
2022-12-03T19:35:21.440Z,98425.53
2022-12-03T19:37:50.033Z,98425.00
2022-12-03T19:40:19.553Z,98427.81
2022-12-03T19:42:47.492Z,98429.03
2022-12-03T19:45:15.533Z,98424.56
2022-12-03T19:47:43.537Z,98414.50
2022-12-03T19:50:19.293Z,98417.78
2022-12-03T19:52:50.437Z,98420.88
2022-12-03T19:55:20.705Z,98384.63
2022-12-03T19:57:48.806Z,98412.09
2022-12-03T20:00:17.802Z,98425.72
2022-12-03T20:02:45.915Z,98434.81
2022-12-03T20:05:14.025Z,98415.19
2022-12-03T20:07:42.145Z,98426.66
2022-12-03T20:10:10.861Z,98434.75
2022-12-03T20:12:40.228Z,98422.56
2022-12-03T20:15:08.755Z,98434.50
2022-12-03T20:17:36.861Z,98438.31
2022-12-03T20:20:06.361Z,98434.91
2022-12-03T20:22:34.363Z,98430.44
2022-12-03T20:25:03.800Z,98426.19
2022-12-03T20:27:32.309Z,98434.47
2022-12-03T20:30:01.769Z,98424.75
2022-12-03T20:32:29.739Z,98429.66
2022-12-03T20:34:57.752Z,98412.16
2022-12-03T20:37:25.719Z,98432.66
2022-12-03T20:39:54.223Z,98427.34
2022-12-03T20:42:22.312Z,98419.66
2022-12-03T20:44:52.611Z,98418.09
2022-12-03T20:47:22.150Z,98413.09
2022-12-03T20:49:50.182Z,98395.09
2022-12-03T20:52:18.252Z,98403.34
2022-12-03T20:54:46.325Z,98400.81
2022-12-03T20:57:14.346Z,98410.91
2022-12-03T20:59:42.407Z,98399.97
2022-12-03T21:02:11.130Z,98407.91
2022-12-03T21:04:40.571Z,98400.06
2022-12-03T21:07:08.591Z,98418.72
2022-12-03T21:09:36.624Z,98416.31
2022-12-03T21:12:04.829Z,98398.34
2022-12-03T21:14:35.666Z,98399.28
2022-12-03T21:17:08.922Z,98399.34
2022-12-03T21:19:37.550Z,98390.16
2022-12-03T21:22:07.246Z,98403.81
2022-12-03T21:24:35.913Z,98403.75
2022-12-03T21:27:04.206Z,98386.94
2022-12-03T21:29:32.247Z,98400.72
2022-12-03T21:32:00.292Z,98399.81
2022-12-03T21:34:35.578Z,98394.78
2022-12-03T21:37:07.108Z,98391.81
2022-12-03T21:39:35.329Z,98376.59
2022-12-03T21:42:18.714Z,98397.28
2022-12-03T21:44:51.381Z,98399.75
2022-12-03T21:47:19.542Z,98399.28
2022-12-03T21:49:47.660Z,98398.72
2022-12-03T21:52:17.314Z,98370.50
2022-12-03T21:54:45.515Z,98388.22
2022-12-03T21:57:13.511Z,98381.25
2022-12-03T21:59:41.539Z,98381.78
2022-12-03T22:02:11.504Z,98383.09
2022-12-03T22:04:40.229Z,98373.69
2022-12-03T22:07:08.590Z,98356.69
2022-12-03T22:09:38.214Z,98382.28
2022-12-03T22:12:06.787Z,98378.97
2022-12-03T22:14:34.841Z,98386.72
2022-12-03T22:17:02.950Z,98390.09
2022-12-03T22:19:31.100Z,98396.50
2022-12-03T22:21:59.133Z,98396.03
2022-12-03T22:24:27.206Z,98402.56
2022-12-03T22:26:56.788Z,98408.91
2022-12-03T22:29:24.814Z,98404.84
2022-12-03T22:31:52.877Z,98418.97
2022-12-03T22:34:20.933Z,98406.47
2022-12-03T22:36:48.995Z,98413.00
2022-12-03T22:39:17.059Z,98409.53
2022-12-03T22:41:45.090Z,98404.31
2022-12-03T22:44:14.550Z,98398.78
2022-12-03T22:46:42.625Z,98394.25
2022-12-03T22:49:11.136Z,98394.38
2022-12-03T22:51:39.126Z,98401.00
2022-12-03T22:54:07.685Z,98398.66
2022-12-03T22:56:35.774Z,98390.63
2022-12-03T22:59:03.890Z,98398.94
2022-12-03T23:01:35.233Z,98367.13
2022-12-03T23:04:04.140Z,98404.25
2022-12-03T23:06:33.066Z,98380.97
2022-12-03T23:09:01.145Z,98381.22
2022-12-03T23:11:29.402Z,98383.16
2022-12-03T23:13:59.019Z,98376.22
2022-12-03T23:16:29.940Z,98364.56
2022-12-03T23:19:01.457Z,98381.44
2022-12-03T23:21:31.441Z,98399.56
2022-12-03T23:23:59.935Z,98368.13
2022-12-03T23:26:29.022Z,98402.69
2022-12-03T23:28:57.619Z,98401.72
2022-12-03T23:31:27.671Z,98391.69
2022-12-03T23:33:56.751Z,98397.38
2022-12-03T23:36:27.765Z,98408.94
2022-12-03T23:38:55.852Z,98399.72
2022-12-03T23:41:24.992Z,98401.41
2022-12-03T23:43:53.212Z,98384.56
2022-12-03T23:46:23.024Z,98396.31
2022-12-03T23:48:51.580Z,98396.06
2022-12-03T23:51:22.152Z,98393.09
2022-12-03T23:53:52.823Z,98395.84
2022-12-03T23:56:25.749Z,98395.38
2022-12-03T23:58:53.798Z,98377.66
